Terminal Aerodrome Forecast
Issued by NWS

Home | Current Version | Previous Version | Text Only | Print | Product List | Glossary On
Versions: 1 2 3 4 5 6 7 8 9 10 11 12 13 14 15 16 17
000
FTUS42 KJAX 291700
TAFCRG
TAF
KCRG 291721Z 2918/3018 13009KT P6SM SCT040
     FM300200 VRB03KT P6SM FEW040 SCT250
     FM301600 12009KT P6SM SCT035=

USA.gov is the U.S. government's official web portal to all federal, state and local government web resources and services.